Time,TemperatureF,DewpointF,PressureIn,WindDirection,WindDirectionDegrees,WindSpeedMPH,WindSpeedGustMPH,Humidity,HourlyPrecipIn,Conditions,Clouds,dailyrainin,SolarRadiationWatts/m^2,SoftwareType,DateUTC
2013-07-12 00:00:00,61.0,61.0,-100.00,NW,315,0.0,-999.0,96,-99.99,,,-99.99,0.000000,,2013-07-12 04:00:00,
2013-07-12 00:43:00,61.0,61.0,-100.00,NW,315,0.0,-999.0,96,-99.99,,,-99.99,0.000000,,2013-07-12 04:43:00,
2013-07-12 00:53:00,61.0,61.0,-100.00,NW,315,0.0,-999.0,96,-99.99,,,-99.99,0.000000,,2013-07-12 04:53:00,
2013-07-12 01:00:00,59.0,59.0,-100.00,NW,315,1.0,-999.0,100,-99.99,,,-99.99,0.000000,,2013-07-12 05:00:00,
2013-07-12 01:43:00,59.0,59.0,-100.00,NW,315,1.0,-999.0,100,-99.99,,,-99.99,0.000000,,2013-07-12 05:43:00,
2013-07-12 01:53:00,59.0,59.0,-100.00,NW,315,1.0,-999.0,100,-99.99,,,-99.99,0.000000,,2013-07-12 05:53:00,
2013-07-12 02:00:00,58.0,58.0,-100.00,WNW,292,0.0,-999.0,103,-99.99,,,-99.99,0.000000,,2013-07-12 06:00:00,
2013-07-12 02:42:00,58.0,58.0,-100.00,WNW,292,0.0,-999.0,103,-99.99,,,-99.99,0.000000,,2013-07-12 06:42:00,
2013-07-12 02:52:00,58.0,58.0,-100.00,WNW,292,0.0,-999.0,103,-99.99,,,-99.99,0.000000,,2013-07-12 06:52:00,
2013-07-12 03:00:00,60.0,59.0,-100.00,SSE,157,4.0,-999.0,98,-99.99,,,-99.99,0.000000,,2013-07-12 07:00:00,
2013-07-12 03:43:00,60.0,59.0,-100.00,SSE,157,4.0,-999.0,98,-99.99,,,-99.99,0.000000,,2013-07-12 07:43:00,
2013-07-12 03:52:00,60.0,59.0,-100.00,SSE,157,4.0,-999.0,98,-99.99,,,-99.99,0.000000,,2013-07-12 07:52:00,
2013-07-12 04:00:00,62.0,59.0,-100.00,East,90,7.0,-999.0,89,-99.99,,,-99.99,0.000000,,2013-07-12 08:00:00,
2013-07-12 04:42:00,62.0,59.0,-100.00,East,90,7.0,-999.0,89,-99.99,,,-99.99,0.000000,,2013-07-12 08:42:00,
2013-07-12 04:53:00,62.0,59.0,-100.00,East,90,7.0,-999.0,89,-99.99,,,-99.99,0.000000,,2013-07-12 08:53:00,
2013-07-12 05:00:00,61.0,58.0,-100.00,East,90,6.0,-999.0,89,-99.99,,,-99.99,0.000000,,2013-07-12 09:00:00,
2013-07-12 05:43:00,61.0,58.0,-100.00,East,90,6.0,-999.0,89,-99.99,,,-99.99,0.000000,,2013-07-12 09:43:00,
2013-07-12 05:52:00,61.0,58.0,-100.00,East,90,6.0,-999.0,89,-99.99,,,-99.99,0.000000,,2013-07-12 09:52:00,
2013-07-12 06:00:00,59.0,57.0,-100.00,East,90,5.0,-999.0,92,-99.99,,,-99.99,0.000000,,2013-07-12 10:00:00,
2013-07-12 06:52:00,59.0,57.0,-100.00,East,90,5.0,-999.0,92,-99.99,,,-99.99,0.000000,,2013-07-12 10:52:00,
2013-07-12 07:00:00,59.0,57.0,-100.00,East,90,3.0,-999.0,95,-99.99,,,-99.99,18.559999,,2013-07-12 11:00:00,
2013-07-12 07:43:00,59.0,57.0,-100.00,East,90,3.0,-999.0,95,-99.99,,,-99.99,18.559999,,2013-07-12 11:43:00,
2013-07-12 07:53:00,59.0,57.0,-100.00,East,90,3.0,-999.0,95,-99.99,,,-99.99,18.559999,,2013-07-12 11:53:00,
2013-07-12 08:43:00,61.0,58.0,-100.00,East,90,4.0,-999.0,91,-99.99,,,-99.99,142.679993,,2013-07-12 12:43:00,
2013-07-12 08:53:00,61.0,58.0,-100.00,East,90,4.0,-999.0,91,-99.99,,,-99.99,142.679993,,2013-07-12 12:53:00,
2013-07-12 09:00:00,65.0,59.0,-100.00,ENE,67,3.0,-999.0,82,-99.99,,,-99.99,305.079987,,2013-07-12 13:00:00,
2013-07-12 09:43:00,65.0,59.0,-100.00,ENE,67,3.0,-999.0,82,-99.99,,,-99.99,305.079987,,2013-07-12 13:43:00,
2013-07-12 09:53:00,65.0,59.0,-100.00,ENE,67,3.0,-999.0,82,-99.99,,,-99.99,305.079987,,2013-07-12 13:53:00,
2013-07-12 10:00:00,69.0,60.0,-100.00,East,90,5.0,-999.0,74,-99.99,,,-99.99,477.920013,,2013-07-12 14:00:00,
2013-07-12 10:44:00,69.0,60.0,-100.00,East,90,5.0,-999.0,74,-99.99,,,-99.99,477.920013,,2013-07-12 14:44:00,
2013-07-12 10:53:00,69.0,60.0,-100.00,East,90,5.0,-999.0,74,-99.99,,,-99.99,477.920013,,2013-07-12 14:53:00,
2013-07-12 11:00:00,72.0,60.0,-100.00,East,90,4.0,-999.0,65,-99.99,,,-99.99,638.000000,,2013-07-12 15:00:00,
2013-07-12 11:43:00,72.0,60.0,-100.00,East,90,4.0,-999.0,65,-99.99,,,-99.99,638.000000,,2013-07-12 15:43:00,
2013-07-12 11:53:00,72.0,60.0,-100.00,East,90,4.0,-999.0,65,-99.99,,,-99.99,638.000000,,2013-07-12 15:53:00,
2013-07-12 12:00:00,76.0,56.0,-100.00,ESE,112,3.0,-999.0,51,-99.99,,,-99.99,769.080017,,2013-07-12 16:00:00,
2013-07-12 12:43:00,76.0,56.0,-100.00,ESE,112,3.0,-999.0,51,-99.99,,,-99.99,769.080017,,2013-07-12 16:43:00,
2013-07-12 12:59:00,76.0,56.0,-100.00,ESE,112,3.0,-999.0,51,-99.99,,,-99.99,769.080017,,2013-07-12 16:59:00,
2013-07-12 13:00:00,77.0,54.0,-100.00,East,90,5.0,-999.0,43,-99.99,,,-99.99,853.760010,,2013-07-12 17:00:00,
2013-07-12 13:47:00,77.0,54.0,-100.00,East,90,5.0,-999.0,43,-99.99,,,-99.99,853.760010,,2013-07-12 17:47:00,
2013-07-12 13:56:00,77.0,54.0,-100.00,East,90,5.0,-999.0,43,-99.99,,,-99.99,853.760010,,2013-07-12 17:56:00,
2013-07-12 14:00:00,79.0,53.0,-100.00,East,90,5.0,-999.0,41,-99.99,,,-99.99,887.400024,,2013-07-12 18:00:00,
2013-07-12 14:51:00,79.0,53.0,-100.00,East,90,5.0,-999.0,41,-99.99,,,-99.99,887.400024,,2013-07-12 18:51:00,
2013-07-12 15:00:00,80.0,50.0,-100.00,East,90,5.0,-999.0,35,-99.99,,,-99.99,881.599976,,2013-07-12 19:00:00,
2013-07-12 15:58:00,80.0,50.0,-100.00,East,90,5.0,-999.0,35,-99.99,,,-99.99,881.599976,,2013-07-12 19:58:00,
2013-07-12 16:47:00,81.0,49.0,-100.00,ESE,112,5.0,-999.0,32,-99.99,,,-99.99,822.440002,,2013-07-12 20:47:00,
2013-07-12 16:55:00,81.0,49.0,-100.00,ESE,112,5.0,-999.0,32,-99.99,,,-99.99,822.440002,,2013-07-12 20:55:00,
2013-07-12 17:00:00,81.0,51.0,-100.00,ESE,112,6.0,-999.0,34,-99.99,,,-99.99,714.559998,,2013-07-12 21:00:00,
2013-07-12 17:49:00,81.0,51.0,-100.00,ESE,112,6.0,-999.0,34,-99.99,,,-99.99,714.559998,,2013-07-12 21:49:00,
2013-07-12 17:59:00,81.0,51.0,-100.00,ESE,112,6.0,-999.0,34,-99.99,,,-99.99,714.559998,,2013-07-12 21:59:00,
2013-07-12 18:00:00,81.0,51.0,-100.00,SE,135,5.0,-999.0,35,-99.99,,,-99.99,574.200012,,2013-07-12 22:00:00,
2013-07-12 18:47:00,81.0,51.0,-100.00,SE,135,5.0,-999.0,35,-99.99,,,-99.99,574.200012,,2013-07-12 22:47:00,
2013-07-12 18:56:00,81.0,51.0,-100.00,SE,135,5.0,-999.0,35,-99.99,,,-99.99,574.200012,,2013-07-12 22:56:00,
2013-07-12 19:45:00,80.0,51.0,-100.00,SE,135,5.0,-999.0,36,-99.99,,,-99.99,408.320007,,2013-07-12 23:45:00,
2013-07-12 19:58:00,80.0,51.0,-100.00,SE,135,5.0,-999.0,36,-99.99,,,-99.99,408.320007,,2013-07-12 23:58:00,
2013-07-12 21:00:00,77.0,51.0,-100.00,ESE,112,4.0,-999.0,39,-99.99,,,-99.99,78.879997,,2013-07-13 01:00:00,
2013-07-12 21:50:00,77.0,51.0,-100.00,ESE,112,4.0,-999.0,39,-99.99,,,-99.99,78.879997,,2013-07-13 01:50:00,
2013-07-12 22:00:00,72.0,57.0,-100.00,ESE,112,1.0,-999.0,58,-99.99,,,-99.99,2.320000,,2013-07-13 02:00:00,
2013-07-12 22:48:00,72.0,57.0,-100.00,ESE,112,1.0,-999.0,58,-99.99,,,-99.99,2.320000,,2013-07-13 02:48:00,
2013-07-12 23:00:00,65.0,61.0,-100.00,SSE,157,1.0,-999.0,86,-99.99,,,-99.99,0.000000,,2013-07-13 03:00:00,
2013-07-12 23:47:00,65.0,61.0,-100.00,SSE,157,1.0,-999.0,86,-99.99,,,-99.99,0.000000,,2013-07-13 03:47:00,